createdAt,value
2023-02-23T00:02:03.654Z,3.70
2023-02-23T00:04:30.367Z,3.77
2023-02-23T00:06:57.152Z,4.10
2023-02-23T00:09:24.479Z,3.77
2023-02-23T00:11:57.122Z,4.30
2023-02-23T00:14:28.257Z,4.50
2023-02-23T00:16:56.449Z,3.90
2023-02-23T00:19:24.701Z,4.00
2023-02-23T00:21:52.395Z,4.00
2023-02-23T00:24:19.800Z,4.20
2023-02-23T00:26:51.025Z,4.37
2023-02-23T00:29:21.884Z,4.67
2023-02-23T00:31:50.915Z,3.87
2023-02-23T00:34:21.020Z,3.50
2023-02-23T00:36:55.315Z,3.53
2023-02-23T00:39:28.815Z,3.17
2023-02-23T00:41:56.860Z,3.80
2023-02-23T00:44:24.581Z,3.53
2023-02-23T00:46:52.568Z,3.30
2023-02-23T00:49:23.025Z,3.30
2023-02-23T00:51:49.879Z,3.40
2023-02-23T00:54:18.831Z,3.77
2023-02-23T00:56:46.421Z,3.60
2023-02-23T00:59:14.630Z,3.60
2023-02-23T01:01:41.934Z,3.67
2023-02-23T01:04:10.688Z,3.07
2023-02-23T01:06:39.522Z,3.30
2023-02-23T01:09:14.462Z,3.30
2023-02-23T01:11:41.734Z,2.83
2023-02-23T01:14:10.778Z,3.13
2023-02-23T01:16:38.793Z,3.03
2023-02-23T01:19:06.571Z,3.07
2023-02-23T01:21:41.925Z,3.13
2023-02-23T01:24:10.413Z,2.83
2023-02-23T01:26:41.592Z,3.10
2023-02-23T01:29:15.731Z,3.00
2023-02-23T01:31:47.369Z,3.00
2023-02-23T01:34:15.248Z,3.40
2023-02-23T01:36:44.307Z,3.77
2023-02-23T01:39:15.608Z,3.57
2023-02-23T01:41:43.075Z,3.07
2023-02-23T01:44:31.019Z,3.03
2023-02-23T01:46:58.262Z,3.10
2023-02-23T01:49:29.206Z,3.43
2023-02-23T01:52:13.125Z,3.57
2023-02-23T01:54:51.051Z,3.63
2023-02-23T01:57:21.609Z,3.10
2023-02-23T01:59:50.890Z,3.43
2023-02-23T02:02:23.010Z,3.47
2023-02-23T02:04:52.092Z,3.30
2023-02-23T02:07:26.601Z,3.30
2023-02-23T02:10:12.975Z,3.00
2023-02-23T02:12:51.928Z,3.40
2023-02-23T02:15:20.652Z,3.17
2023-02-23T02:18:38.373Z,3.97
2023-02-23T02:21:46.879Z,3.23
2023-02-23T02:24:48.710Z,3.40
2023-02-23T02:27:46.291Z,3.00
2023-02-23T02:30:40.391Z,3.33
2023-02-23T02:33:27.064Z,3.33
2023-02-23T02:36:18.344Z,3.10
2023-02-23T02:39:10.220Z,3.40
2023-02-23T02:42:06.415Z,3.00
2023-02-23T02:44:50.343Z,2.93
2023-02-23T02:47:36.003Z,3.57
2023-02-23T02:50:31.232Z,3.27
2023-02-23T02:53:10.835Z,3.20
2023-02-23T02:55:43.748Z,3.20
2023-02-23T02:58:13.143Z,3.67
2023-02-23T03:01:08.762Z,3.27
2023-02-23T03:04:01.815Z,4.07
2023-02-23T03:06:56.323Z,3.90
2023-02-23T03:10:06.693Z,3.53
2023-02-23T03:13:05.305Z,3.60
2023-02-23T03:16:21.770Z,3.00
2023-02-23T03:19:25.098Z,3.53
2023-02-23T03:22:25.540Z,3.27
2023-02-23T03:25:18.874Z,4.10
2023-02-23T03:28:15.992Z,4.43
2023-02-23T03:31:32.305Z,3.87
2023-02-23T03:34:56.096Z,4.07
2023-02-23T03:38:00.607Z,4.67
2023-02-23T03:40:53.575Z,4.10
2023-02-23T03:43:48.675Z,4.30
2023-02-23T03:46:37.833Z,4.27
2023-02-23T03:49:29.067Z,4.00
2023-02-23T03:52:43.140Z,4.17
2023-02-23T03:55:37.597Z,4.23
2023-02-23T03:58:30.163Z,4.23
2023-02-23T04:01:20.816Z,4.13
2023-02-23T04:04:10.165Z,4.63
2023-02-23T04:07:02.030Z,4.40
2023-02-23T04:09:48.255Z,4.43
2023-02-23T04:12:56.150Z,4.10
2023-02-23T04:15:33.740Z,4.00
2023-02-23T04:18:00.758Z,4.63
2023-02-23T04:20:31.300Z,4.37
2023-02-23T04:22:58.088Z,4.33
2023-02-23T04:25:26.741Z,4.70
2023-02-23T04:27:53.441Z,5.00
2023-02-23T04:30:20.472Z,4.63
2023-02-23T04:32:47.451Z,4.70
2023-02-23T04:35:14.341Z,5.17
2023-02-23T04:37:41.038Z,5.30
2023-02-23T04:40:09.171Z,4.80
2023-02-23T04:42:37.673Z,4.87
2023-02-23T04:45:04.825Z,4.57
2023-02-23T04:47:31.614Z,4.57
2023-02-23T04:49:58.392Z,5.00
2023-02-23T04:52:25.447Z,5.37
2023-02-23T04:54:52.159Z,5.33
2023-02-23T04:57:18.874Z,5.13
2023-02-23T04:59:45.759Z,5.13
2023-02-23T05:02:12.523Z,4.97
2023-02-23T05:04:39.245Z,4.90
2023-02-23T05:07:06.288Z,5.20
2023-02-23T05:09:33.269Z,4.90
2023-02-23T05:12:00.186Z,5.07
2023-02-23T05:14:27.414Z,5.40
2023-02-23T05:16:54.284Z,4.80
2023-02-23T05:19:21.597Z,4.77
2023-02-23T05:21:50.367Z,5.07
2023-02-23T05:24:18.738Z,5.07
2023-02-23T05:26:45.872Z,4.80
2023-02-23T05:29:12.729Z,4.80
2023-02-23T05:31:39.627Z,5.23
2023-02-23T05:34:06.692Z,5.93
2023-02-23T05:36:33.618Z,5.57
2023-02-23T05:39:00.400Z,6.33
2023-02-23T05:41:27.120Z,6.30
2023-02-23T05:43:55.592Z,6.33
2023-02-23T05:46:27.122Z,6.50
2023-02-23T05:49:00.717Z,7.03
2023-02-23T05:51:30.476Z,6.10
2023-02-23T05:53:57.466Z,7.77
2023-02-23T05:56:24.486Z,6.80
2023-02-23T05:58:59.671Z,8.00
2023-02-23T06:01:28.098Z,6.60
2023-02-23T06:03:56.108Z,7.20
2023-02-23T06:06:23.993Z,7.00
2023-02-23T06:08:51.661Z,7.00
2023-02-23T06:11:18.944Z,7.87
2023-02-23T06:13:45.854Z,7.67
2023-02-23T06:16:12.815Z,6.17
2023-02-23T06:18:40.222Z,6.17
2023-02-23T06:21:06.955Z,7.53
2023-02-23T06:23:34.085Z,7.17
2023-02-23T06:26:00.853Z,7.57
2023-02-23T06:28:28.521Z,7.37
2023-02-23T06:30:56.852Z,7.40
2023-02-23T06:33:24.254Z,7.83
2023-02-23T06:35:51.450Z,7.10
2023-02-23T06:38:19.155Z,7.27
2023-02-23T06:40:45.930Z,7.53
2023-02-23T06:43:12.689Z,8.23
2023-02-23T06:45:39.504Z,8.33
2023-02-23T06:48:06.737Z,8.73
2023-02-23T06:50:33.509Z,7.77
2023-02-23T06:53:00.321Z,9.53
2023-02-23T06:55:27.105Z,8.70
2023-02-23T06:57:54.272Z,9.00
2023-02-23T07:00:22.130Z,8.80
2023-02-23T07:02:49.035Z,9.57
2023-02-23T07:05:16.170Z,9.20
2023-02-23T07:07:43.236Z,10.27
2023-02-23T07:10:11.079Z,9.63
2023-02-23T07:12:37.816Z,9.43
2023-02-23T07:15:05.682Z,9.53
2023-02-23T07:17:32.420Z,9.40
2023-02-23T07:19:59.239Z,10.53
2023-02-23T07:22:29.300Z,9.60
2023-02-23T07:24:57.451Z,11.03
2023-02-23T07:27:24.960Z,9.50
2023-02-23T07:29:51.807Z,10.37
2023-02-23T07:32:18.689Z,10.60
2023-02-23T07:34:47.673Z,10.33
2023-02-23T07:37:14.575Z,10.37
2023-02-23T07:39:41.330Z,10.97
2023-02-23T07:42:08.150Z,11.40
2023-02-23T07:44:34.926Z,9.73
2023-02-23T07:47:01.637Z,10.53
2023-02-23T07:49:28.380Z,10.27
2023-02-23T07:51:55.111Z,10.83
2023-02-23T07:54:22.576Z,9.60
2023-02-23T07:56:49.286Z,10.40
2023-02-23T07:59:16.141Z,10.23
2023-02-23T08:01:43.481Z,9.67
2023-02-23T08:04:10.776Z,10.07
2023-02-23T08:06:37.588Z,12.27
2023-02-23T08:09:05.809Z,13.83
2023-02-23T08:11:32.492Z,16.57
2023-02-23T08:14:00.284Z,15.00
2023-02-23T08:16:33.245Z,15.10
2023-02-23T08:19:00.798Z,15.23
2023-02-23T08:21:29.343Z,18.70
2023-02-23T08:23:58.107Z,18.13
2023-02-23T08:26:25.717Z,17.20
2023-02-23T08:28:54.390Z,15.70
2023-02-23T08:31:24.076Z,15.20
2023-02-23T08:33:51.647Z,16.87
2023-02-23T08:36:18.716Z,17.70
2023-02-23T08:38:45.461Z,15.67
2023-02-23T08:41:12.596Z,15.60
2023-02-23T08:43:39.429Z,18.23
2023-02-23T08:46:07.331Z,15.27
2023-02-23T08:48:35.182Z,16.53
2023-02-23T08:51:03.069Z,18.10
2023-02-23T08:53:30.700Z,18.00
2023-02-23T08:56:00.588Z,16.80
2023-02-23T08:58:30.568Z,14.97
2023-02-23T09:00:58.286Z,16.10
2023-02-23T09:03:30.360Z,16.63
2023-02-23T09:06:06.185Z,16.70
2023-02-23T09:08:32.979Z,17.13
2023-02-23T09:10:59.711Z,18.73
2023-02-23T09:13:26.438Z,16.87
2023-02-23T09:15:54.377Z,18.37
2023-02-23T09:18:23.866Z,15.50
2023-02-23T09:20:50.916Z,19.63
2023-02-23T09:23:17.708Z,15.97
2023-02-23T09:25:45.550Z,16.47
2023-02-23T09:28:21.159Z,14.23
2023-02-23T09:30:48.478Z,13.37
2023-02-23T09:33:15.319Z,15.63
2023-02-23T09:35:42.058Z,15.50
2023-02-23T09:38:09.477Z,16.53
2023-02-23T09:40:54.286Z,20.20
2023-02-23T09:43:44.748Z,15.97
2023-02-23T09:46:41.598Z,18.40
2023-02-23T09:49:19.004Z,17.97
2023-02-23T09:51:55.274Z,17.03
2023-02-23T09:54:25.472Z,16.90
2023-02-23T09:56:56.196Z,16.60
2023-02-23T09:59:24.990Z,16.43
2023-02-23T10:02:30.874Z,17.43
2023-02-23T10:05:11.054Z,17.40
2023-02-23T10:07:52.547Z,17.97
2023-02-23T10:10:49.467Z,16.40
2023-02-23T10:13:34.159Z,19.43
2023-02-23T10:16:42.491Z,22.43
2023-02-23T10:19:31.816Z,20.20
2023-02-23T10:22:06.922Z,19.60
2023-02-23T10:24:51.032Z,20.60
2023-02-23T10:27:24.110Z,21.53
2023-02-23T10:30:01.362Z,20.37
2023-02-23T10:33:01.087Z,20.07
2023-02-23T10:35:29.822Z,20.33
2023-02-23T10:37:58.323Z,22.73
2023-02-23T10:40:32.104Z,19.67
2023-02-23T10:43:02.440Z,20.30
2023-02-23T10:45:36.051Z,19.93
2023-02-23T10:48:16.726Z,21.03
2023-02-23T10:50:45.675Z,20.00
2023-02-23T10:53:27.762Z,19.97
2023-02-23T10:56:15.799Z,19.23
2023-02-23T10:58:55.884Z,18.60
2023-02-23T11:02:00.316Z,17.43
2023-02-23T11:04:31.940Z,17.50
2023-02-23T11:07:11.626Z,16.27
2023-02-23T11:09:47.207Z,18.80
2023-02-23T11:12:28.494Z,14.57
2023-02-23T11:14:59.073Z,17.30
2023-02-23T11:17:36.917Z,17.13
2023-02-23T11:20:18.474Z,15.87
2023-02-23T11:22:46.006Z,16.33
2023-02-23T11:25:30.372Z,13.90
2023-02-23T11:27:58.732Z,13.93
2023-02-23T11:30:37.479Z,12.00
2023-02-23T11:33:10.565Z,10.83
2023-02-23T11:35:38.333Z,12.20
2023-02-23T11:38:24.280Z,12.80
2023-02-23T11:41:18.067Z,12.80
2023-02-23T11:43:56.617Z,13.03
2023-02-23T11:46:24.905Z,11.57
2023-02-23T11:49:14.524Z,12.87
2023-02-23T11:51:48.930Z,13.53
2023-02-23T11:54:35.970Z,12.40
2023-02-23T11:57:03.203Z,11.70
2023-02-23T11:59:50.466Z,10.93
2023-02-23T12:02:26.596Z,10.17
2023-02-23T12:05:07.665Z,10.30
2023-02-23T12:07:41.598Z,10.33
2023-02-23T12:10:26.416Z,10.47
2023-02-23T12:13:02.862Z,10.67
2023-02-23T12:16:03.080Z,10.60
2023-02-23T12:18:52.940Z,12.73
2023-02-23T12:21:38.221Z,16.00
2023-02-23T12:24:54.030Z,16.63
2023-02-23T12:27:45.066Z,15.23
2023-02-23T12:30:31.487Z,14.60
2023-02-23T12:33:13.634Z,13.20
2023-02-23T12:35:46.225Z,13.23
2023-02-23T12:38:27.597Z,13.13
2023-02-23T12:41:26.056Z,12.40
2023-02-23T12:44:03.166Z,13.40
2023-02-23T12:46:47.299Z,14.83
2023-02-23T12:49:31.727Z,14.13
2023-02-23T12:52:14.572Z,12.17
2023-02-23T12:54:44.664Z,13.50
2023-02-23T12:57:40.651Z,11.63
2023-02-23T13:01:12.173Z,10.70
2023-02-23T13:04:27.158Z,10.30
2023-02-23T13:07:34.850Z,10.63
2023-02-23T13:10:36.417Z,10.50
2023-02-23T13:13:42.736Z,9.20
2023-02-23T13:16:48.263Z,9.50
2023-02-23T13:19:38.507Z,9.53
2023-02-23T13:22:33.483Z,12.53
2023-02-23T13:25:07.996Z,10.67
2023-02-23T13:27:44.764Z,9.33
2023-02-23T13:30:12.482Z,9.33
2023-02-23T13:32:39.722Z,10.50
2023-02-23T13:35:17.774Z,9.53
2023-02-23T13:38:04.094Z,10.20
2023-02-23T13:40:54.937Z,9.63
2023-02-23T13:43:56.442Z,10.07
2023-02-23T13:46:54.657Z,8.77
2023-02-23T13:49:39.391Z,7.57
2023-02-23T13:52:33.119Z,7.13
2023-02-23T13:55:04.258Z,6.33
2023-02-23T13:57:33.341Z,6.80
2023-02-23T14:00:01.046Z,7.60
2023-02-23T14:02:34.460Z,6.93
2023-02-23T14:05:21.049Z,7.10
2023-02-23T14:07:58.950Z,8.10
2023-02-23T14:10:29.793Z,6.67
2023-02-23T14:13:17.464Z,8.30
2023-02-23T14:15:53.429Z,7.03
2023-02-23T14:18:26.104Z,7.90
2023-02-23T14:21:15.640Z,7.97
2023-02-23T14:23:42.275Z,8.80
2023-02-23T14:26:30.537Z,8.00
2023-02-23T14:29:17.060Z,7.77
2023-02-23T14:32:20.220Z,9.33
2023-02-23T14:34:59.242Z,7.90
2023-02-23T14:37:36.052Z,6.77
2023-02-23T14:40:17.912Z,7.47
2023-02-23T14:42:53.166Z,8.03
2023-02-23T14:45:28.924Z,6.77
2023-02-23T14:48:06.628Z,6.83
2023-02-23T14:50:37.512Z,6.30
2023-02-23T14:53:13.682Z,7.00
2023-02-23T14:55:43.925Z,6.20
2023-02-23T14:58:33.371Z,6.37
2023-02-23T15:01:00.180Z,7.30
2023-02-23T15:03:27.045Z,7.47
2023-02-23T15:06:00.326Z,8.17
2023-02-23T15:08:30.677Z,8.57
2023-02-23T15:11:08.801Z,7.93
2023-02-23T15:13:40.705Z,8.57
2023-02-23T15:16:22.903Z,7.30
2023-02-23T15:18:51.654Z,7.93
2023-02-23T15:21:25.018Z,7.23
2023-02-23T15:24:11.372Z,7.73
2023-02-23T15:26:41.000Z,7.50
2023-02-23T15:29:10.384Z,7.97
2023-02-23T15:31:40.661Z,7.97
2023-02-23T15:34:11.258Z,7.63
2023-02-23T15:36:39.887Z,7.13
2023-02-23T15:39:16.194Z,7.40
2023-02-23T15:41:49.856Z,8.00
2023-02-23T15:44:42.365Z,7.90
2023-02-23T15:47:23.158Z,7.83
2023-02-23T15:49:50.168Z,8.53
2023-02-23T15:52:23.331Z,8.73
2023-02-23T15:55:01.521Z,8.27
2023-02-23T15:57:49.282Z,7.70
2023-02-23T16:00:37.200Z,8.87
2023-02-23T16:03:06.852Z,7.87
2023-02-23T16:05:46.988Z,7.50
2023-02-23T16:08:25.185Z,8.93
2023-02-23T16:11:02.883Z,9.10
2023-02-23T16:13:30.231Z,8.53
2023-02-23T16:15:57.372Z,8.07
2023-02-23T16:18:39.345Z,8.37
2023-02-23T16:21:07.338Z,7.23
2023-02-23T16:23:49.227Z,8.10
2023-02-23T16:26:26.832Z,8.57
2023-02-23T16:29:00.122Z,8.63
2023-02-23T16:31:47.125Z,9.10
2023-02-23T16:34:24.511Z,7.73
2023-02-23T16:37:00.937Z,8.20
2023-02-23T16:39:30.889Z,8.33
2023-02-23T16:41:59.576Z,8.20
2023-02-23T16:44:41.375Z,8.83
2023-02-23T16:47:24.554Z,8.57
2023-02-23T16:49:51.757Z,8.47
2023-02-23T16:52:23.785Z,9.13
2023-02-23T16:54:54.430Z,9.00
2023-02-23T16:57:28.878Z,9.67
2023-02-23T16:59:57.395Z,9.67
2023-02-23T17:02:24.358Z,9.30
2023-02-23T17:04:52.559Z,9.60
2023-02-23T17:07:22.892Z,10.03
2023-02-23T17:09:50.919Z,10.40
2023-02-23T17:12:21.402Z,9.83
2023-02-23T17:14:49.564Z,9.80
2023-02-23T17:17:19.319Z,9.93
2023-02-23T17:19:46.532Z,9.93
2023-02-23T17:22:14.496Z,10.27
2023-02-23T17:24:43.284Z,10.50
2023-02-23T17:27:10.143Z,9.67
2023-02-23T17:29:36.990Z,10.83
2023-02-23T17:32:04.045Z,10.77
2023-02-23T17:34:31.255Z,12.20
2023-02-23T17:36:58.081Z,10.17
2023-02-23T17:39:27.906Z,10.30
2023-02-23T17:41:55.636Z,10.30
2023-02-23T17:44:22.663Z,11.27
2023-02-23T17:46:49.621Z,11.47
2023-02-23T17:49:16.426Z,11.50
2023-02-23T17:51:43.166Z,11.30
2023-02-23T17:54:09.892Z,12.00
2023-02-23T17:56:36.728Z,11.10
2023-02-23T17:59:03.505Z,11.37
2023-02-23T18:01:30.561Z,10.43
2023-02-23T18:03:58.566Z,11.00
2023-02-23T18:06:25.368Z,10.07
2023-02-23T18:08:52.072Z,10.27
2023-02-23T18:11:21.430Z,8.23
2023-02-23T18:13:51.054Z,9.83
2023-02-23T18:16:19.638Z,9.13
2023-02-23T18:18:48.766Z,9.57
2023-02-23T18:21:20.329Z,8.73
2023-02-23T18:23:48.568Z,9.33
2023-02-23T18:26:22.684Z,10.23
2023-02-23T18:28:50.954Z,10.30
2023-02-23T18:31:22.554Z,9.13
2023-02-23T18:33:52.610Z,9.93
2023-02-23T18:36:24.524Z,10.70
2023-02-23T18:38:51.754Z,10.77
2023-02-23T18:41:20.031Z,10.70
2023-02-23T18:43:47.693Z,10.93
2023-02-23T18:46:17.793Z,10.60
2023-02-23T18:48:44.897Z,11.00
2023-02-23T18:51:14.199Z,12.57
2023-02-23T18:53:42.003Z,11.83
2023-02-23T18:56:15.518Z,11.27
2023-02-23T18:58:44.863Z,11.23
2023-02-23T19:01:17.933Z,10.50
2023-02-23T19:03:45.329Z,10.20
2023-02-23T19:06:13.153Z,9.57
2023-02-23T19:08:41.872Z,10.17
2023-02-23T19:11:09.858Z,9.53
2023-02-23T19:13:39.971Z,10.60
2023-02-23T19:16:08.076Z,10.80
2023-02-23T19:18:35.821Z,11.10
2023-02-23T19:21:04.403Z,11.47
2023-02-23T19:23:31.366Z,11.07
2023-02-23T19:26:02.131Z,10.53
2023-02-23T19:28:29.231Z,12.27
2023-02-23T19:31:15.791Z,12.87
2023-02-23T19:33:43.425Z,13.57
2023-02-23T19:36:16.125Z,12.40
2023-02-23T19:38:42.979Z,13.43
2023-02-23T19:41:13.934Z,12.03
2023-02-23T19:43:41.484Z,13.27
2023-02-23T19:46:12.067Z,14.17
2023-02-23T19:48:39.343Z,14.07
2023-02-23T19:51:10.691Z,14.03
2023-02-23T19:53:38.148Z,13.43
2023-02-23T19:56:12.398Z,11.57
2023-02-23T19:58:42.872Z,12.13
2023-02-23T20:01:14.508Z,13.10
2023-02-23T20:03:43.153Z,12.37
2023-02-23T20:06:13.420Z,12.40
2023-02-23T20:08:41.930Z,13.23
2023-02-23T20:11:08.967Z,13.80
2023-02-23T20:13:38.538Z,14.13
2023-02-23T20:16:10.189Z,12.70
2023-02-23T20:18:39.632Z,13.07
2023-02-23T20:21:28.449Z,12.10
2023-02-23T20:23:56.194Z,12.13
2023-02-23T20:26:27.865Z,10.83
2023-02-23T20:28:56.312Z,11.27
2023-02-23T20:31:29.923Z,10.67
2023-02-23T20:34:07.699Z,11.87
2023-02-23T20:36:34.855Z,11.33
2023-02-23T20:39:01.633Z,11.73
2023-02-23T20:41:29.699Z,11.73
2023-02-23T20:43:56.843Z,11.13
2023-02-23T20:46:24.182Z,12.10
2023-02-23T20:48:51.001Z,12.77
2023-02-23T20:51:19.238Z,11.70
2023-02-23T20:53:47.969Z,10.73
2023-02-23T20:56:18.819Z,11.00
2023-02-23T20:58:46.122Z,11.07
2023-02-23T21:01:23.697Z,10.60
2023-02-23T21:03:52.861Z,11.07
2023-02-23T21:06:23.289Z,11.93
2023-02-23T21:08:55.478Z,12.50
2023-02-23T21:11:27.248Z,10.27
2023-02-23T21:13:54.071Z,10.77
2023-02-23T21:16:23.569Z,10.90
2023-02-23T21:18:56.849Z,9.87
2023-02-23T21:21:23.539Z,11.13
2023-02-23T21:23:51.181Z,12.33
2023-02-23T21:26:21.402Z,12.27
2023-02-23T21:28:49.006Z,11.80
2023-02-23T21:31:16.430Z,11.63
2023-02-23T21:33:43.731Z,11.90
2023-02-23T21:36:12.453Z,11.47
2023-02-23T21:38:42.814Z,11.80
2023-02-23T21:41:12.416Z,10.57
2023-02-23T21:43:41.623Z,10.13
2023-02-23T21:46:15.968Z,10.53
2023-02-23T21:48:43.722Z,10.93
2023-02-23T21:51:14.462Z,11.27
2023-02-23T21:53:43.357Z,10.47
2023-02-23T21:56:14.707Z,10.73
2023-02-23T21:58:51.060Z,11.07
2023-02-23T22:01:23.914Z,9.57
2023-02-23T22:03:51.074Z,9.53
2023-02-23T22:06:21.458Z,10.30
2023-02-23T22:08:51.474Z,9.30
2023-02-23T22:11:24.534Z,9.43
2023-02-23T22:13:58.882Z,9.83
2023-02-23T22:16:33.117Z,11.00
2023-02-23T22:19:03.842Z,10.03
2023-02-23T22:21:35.307Z,9.37
2023-02-23T22:24:05.281Z,10.47
2023-02-23T22:26:34.401Z,10.27
2023-02-23T22:29:01.360Z,10.17
2023-02-23T22:31:29.342Z,9.67
2023-02-23T22:33:56.747Z,10.33
2023-02-23T22:36:23.865Z,10.13
2023-02-23T22:38:50.658Z,9.80
2023-02-23T22:41:17.615Z,9.57
2023-02-23T22:43:46.563Z,9.73
2023-02-23T22:46:16.141Z,10.17
2023-02-23T22:48:44.819Z,10.53
2023-02-23T22:51:14.020Z,10.53
2023-02-23T22:53:40.819Z,9.53
2023-02-23T22:56:08.400Z,10.07
2023-02-23T22:58:36.179Z,9.90
2023-02-23T23:01:09.597Z,10.00
2023-02-23T23:03:41.961Z,10.50
2023-02-23T23:06:11.643Z,11.33
2023-02-23T23:08:41.819Z,10.63
2023-02-23T23:11:22.020Z,10.40
2023-02-23T23:14:01.944Z,11.17
2023-02-23T23:16:33.603Z,11.03
2023-02-23T23:19:04.939Z,12.80
2023-02-23T23:21:34.820Z,11.83
2023-02-23T23:24:07.662Z,11.13
2023-02-23T23:26:40.730Z,11.97
2023-02-23T23:29:13.480Z,12.23
2023-02-23T23:31:45.352Z,11.40
2023-02-23T23:34:16.237Z,11.47
2023-02-23T23:36:48.647Z,11.23
2023-02-23T23:39:18.032Z,10.90
2023-02-23T23:41:48.191Z,10.07
2023-02-23T23:44:22.304Z,10.87
2023-02-23T23:46:52.657Z,10.93
2023-02-23T23:49:25.338Z,10.27
2023-02-23T23:51:56.034Z,11.23
2023-02-23T23:54:26.754Z,10.50
2023-02-23T23:56:54.777Z,11.53
2023-02-23T23:59:25.910Z,10.67
